CST,Max TemperatureF,Mean TemperatureF,Min TemperatureF,Max Dew PointF,MeanDew PointF,Min DewpointF,Max Humidity, Mean Humidity, Min Humidity, Max Sea Level PressureIn, Mean Sea Level PressureIn, Min Sea Level PressureIn, Max VisibilityMiles, Mean VisibilityMiles, Min VisibilityMiles, Max Wind SpeedMPH, Mean Wind SpeedMPH, Max Gust SpeedMPH,PrecipitationIn, CloudCover, Events, WindDirDegrees
2013-2-1,53,43,32,35,26,16,85,55,24,30.52,30.41,30.32,10,10,10,16,6,20,0.00,0,,30
2013-2-2,70,53,35,47,40,27,79,61,42,30.35,30.26,30.18,10,10,10,17,9,21,0.00,2,,201
2013-2-3,68,50,31,42,35,28,100,62,24,30.31,30.25,30.15,10,5,0,15,4,22,0.00,0,Fog,318
2013-2-4,62,52,42,46,39,33,89,65,40,30.13,30.05,29.97,10,10,10,13,6,17,T,3,,148
2013-2-5,62,54,46,55,52,44,100,89,77,30.09,30.02,29.94,10,5,0,5,2,7,0.00,7,Fog-Rain,108
2013-2-6,68,54,40,58,49,39,100,84,67,30.17,30.08,30.01,10,4,0,20,3,,0.05,5,Fog-Rain,79
2013-2-7,72,62,52,58,56,53,100,81,61,29.99,29.95,29.91,10,7,3,8,3,10,0.00,6,,44
2013-2-8,59,50,41,55,48,38,100,81,61,30.27,30.14,29.98,10,9,3,22,9,29,0.00,5,,9
2013-2-9,64,51,38,52,42,35,85,67,48,30.30,30.19,30.04,10,10,8,20,8,25,0.00,2,,98
2013-2-10,67,63,58,64,60,53,100,90,80,30.05,29.93,29.85,10,6,0,23,13,36,3.10,7,Fog-Rain-Thunderstorm,161
2013-2-11,60,56,51,58,51,48,96,93,89,30.22,30.12,30.00,10,8,0,15,6,18,0.43,8,Fog-Rain-Thunderstorm,34
2013-2-12,53,51,48,50,48,46,93,88,83,30.17,29.90,29.79,10,6,1,20,9,24,2.01,8,Rain-Thunderstorm,43
2013-2-13,52,46,40,46,41,37,93,77,61,30.12,30.01,29.86,10,10,10,18,7,25,T,7,Rain,296
2013-2-14,61,48,35,44,38,34,100,74,47,30.18,30.12,30.08,10,6,0,6,0,9,0.00,0,Fog,177
2013-2-15,62,49,36,43,37,30,100,70,39,30.26,30.19,30.13,10,8,1,17,6,22,0.00,2,,349
2013-2-16,51,42,32,32,24,14,70,47,24,30.36,30.31,30.26,10,10,10,20,9,30,0.00,0,,336
2013-2-17,63,47,30,37,30,24,78,56,33,30.35,30.26,30.17,10,10,10,15,8,21,0.00,1,,170
2013-2-18,69,57,45,55,49,37,93,71,49,30.20,30.02,29.89,10,8,1,30,15,43,0.79,6,Rain-Thunderstorm,182
2013-2-19,58,49,40,54,39,29,89,62,35,30.31,30.21,29.97,10,10,10,17,7,23,0.00,2,,357
2013-2-20,56,48,40,36,27,19,79,52,24,30.31,30.21,30.09,10,10,10,17,8,21,0.00,3,,74
2013-2-21,67,56,45,63,46,27,100,71,42,30.06,29.85,29.69,10,8,0,29,12,35,1.61,8,Fog-Rain-Thunderstorm,125
2013-2-22,58,53,47,50,47,44,93,80,67,30.09,30.01,29.95,10,9,2,20,7,28,0.18,6,Rain-Thunderstorm,357
2013-2-23,56,47,38,42,40,37,93,74,55,30.06,30.02,29.97,10,9,2,14,7,22,0.00,0,,13
2013-2-24,70,54,38,44,39,35,100,64,28,30.09,29.97,29.80,10,10,10,14,7,16,0.00,1,,65
2013-2-25,72,63,53,63,56,39,93,73,53,29.79,29.56,29.38,10,7,1,32,11,56,1.24,7,Rain-Thunderstorm,138
2013-2-26,54,46,37,40,35,33,100,73,46,29.95,29.75,29.56,10,10,9,24,10,32,0.00,4,,260
2013-2-27,62,48,34,41,36,33,100,71,42,30.09,29.99,29.93,10,7,0,15,4,26,0.00,1,Fog,304
2013-2-28,55,46,36,38,32,27,86,61,35,30.21,30.14,30.09,10,9,0,15,7,22,0.00,0,Fog,316